createdAt,value
2023-02-18T00:00:08.795Z,1020.43
2023-02-18T00:01:08.805Z,1020.38
2023-02-18T00:02:08.846Z,1020.32
2023-02-18T00:03:08.823Z,1020.01
2023-02-18T00:04:08.806Z,1019.92
2023-02-18T00:05:08.804Z,1020.03
2023-02-18T00:06:09.054Z,1020.02
2023-02-18T00:07:08.819Z,1019.99
2023-02-18T00:08:08.833Z,1020.05
2023-02-18T00:09:08.816Z,1019.99
2023-02-18T00:10:11.607Z,1020.13
2023-02-18T00:11:08.818Z,1019.91
2023-02-18T00:12:08.823Z,1019.77
2023-02-18T00:13:08.817Z,1019.7
2023-02-18T00:14:08.841Z,1019.18
2023-02-18T00:15:08.825Z,1019.53
2023-02-18T00:16:09.143Z,1019.02
2023-02-18T00:17:08.827Z,1019.11
2023-02-18T00:18:08.833Z,1018.59
2023-02-18T00:19:08.825Z,1018.64
2023-02-18T00:20:08.827Z,1018.49
2023-02-18T00:21:11.898Z,1018.21
2023-02-18T00:22:08.830Z,1018.38
2023-02-18T00:23:08.839Z,1018.52
2023-02-18T00:24:08.858Z,1018.27
2023-02-18T00:25:08.836Z,1017.94
2023-02-18T00:26:09.188Z,1018.2
2023-02-18T00:27:08.837Z,1017.76
2023-02-18T00:28:08.841Z,1017.9
2023-02-18T00:29:08.839Z,1018.29
2023-02-18T00:30:08.876Z,1018.42
2023-02-18T00:31:08.952Z,1018.18
2023-02-18T00:32:11.966Z,1018.09
2023-02-18T00:33:08.853Z,1018.02
2023-02-18T00:34:08.859Z,1018.14
2023-02-18T00:35:08.860Z,1018.05
2023-02-18T00:36:09.194Z,1017.92
2023-02-18T00:37:08.862Z,1017.92
2023-02-18T00:38:08.861Z,1018.54
2023-02-18T00:39:08.864Z,1018.37
2023-02-18T00:40:08.905Z,1018.32
2023-02-18T00:41:08.863Z,1018.39
2023-02-18T00:42:08.871Z,1018.54
2023-02-18T00:43:11.728Z,1018.73
2023-02-18T00:44:08.876Z,1018.7
2023-02-18T00:45:08.868Z,1018.47
2023-02-18T00:46:09.275Z,1018.76
2023-02-18T00:47:08.877Z,1019.09
2023-02-18T00:48:08.873Z,1018.82
2023-02-18T00:49:08.879Z,1018.99
2023-02-18T00:50:08.899Z,1019.22
2023-02-18T00:51:08.883Z,1018.8
2023-02-18T00:52:08.891Z,1019.02
2023-02-18T00:53:08.884Z,1019.4
2023-02-18T00:54:12.004Z,1018.99
2023-02-18T00:55:08.890Z,1019.22
2023-02-18T00:56:09.209Z,1019.44
2023-02-18T00:57:08.890Z,1019.59
2023-02-18T00:58:08.888Z,1019.82
2023-02-18T00:59:08.892Z,1019.65
2023-02-18T01:00:08.932Z,1020.03
2023-02-18T01:01:08.898Z,1019.92
2023-02-18T01:02:08.898Z,1019.98
2023-02-18T01:03:08.899Z,1020.22
2023-02-18T01:04:08.902Z,1019.61
2023-02-18T01:05:12.865Z,1019.88
2023-02-18T01:06:09.228Z,1019.92
2023-02-18T01:07:08.908Z,1019.88
2023-02-18T01:08:08.914Z,1019.66
2023-02-18T01:09:08.912Z,1019.66
2023-02-18T01:10:08.922Z,1019.53
2023-02-18T01:11:08.912Z,1019.34
2023-02-18T01:12:08.938Z,1019.44
2023-02-18T01:13:08.918Z,1019.35
2023-02-18T01:14:08.928Z,1019.23
2023-02-18T01:15:08.921Z,1018.88
2023-02-18T01:16:09.294Z,1018.88
2023-02-18T01:17:08.934Z,1018.77
2023-02-18T01:18:08.938Z,1018.6
2023-02-18T01:19:09.439Z,1018.37
2023-02-18T01:20:08.933Z,1018.08
2023-02-18T01:21:09.073Z,1017.87
2023-02-18T01:22:08.938Z,1017.49
2023-02-18T01:23:08.940Z,1017.54
2023-02-18T01:24:08.947Z,1017.08
2023-02-18T01:25:08.938Z,1016.4
2023-02-18T01:26:09.251Z,1016.04
2023-02-18T01:27:08.950Z,1016.24
2023-02-18T01:28:08.973Z,1015.59
2023-02-18T01:29:08.964Z,1015.11
2023-02-18T01:30:09.043Z,1014.51
2023-02-18T01:31:09.039Z,1014.15
2023-02-18T01:32:09.054Z,1013.6
2023-02-18T01:33:08.960Z,1013.77
2023-02-18T01:34:08.984Z,1013.54
2023-02-18T01:35:08.964Z,1013.48
2023-02-18T01:36:09.380Z,1013.36
2023-02-18T01:37:08.965Z,1012.96
2023-02-18T01:38:08.976Z,1012.49
2023-02-18T01:39:08.968Z,1012.28
2023-02-18T01:40:08.968Z,1011.6
2023-02-18T01:41:08.961Z,1011.14
2023-02-18T01:42:08.964Z,1010.49
2023-02-18T01:43:09.063Z,1009.62
2023-02-18T01:44:09.000Z,1008.97
2023-02-18T01:45:08.974Z,1008.43
2023-02-18T01:46:09.257Z,1008.1
2023-02-18T01:47:08.979Z,1007.47
2023-02-18T01:48:08.971Z,1007.37
2023-02-18T01:49:08.979Z,1006.74
2023-02-18T01:50:08.986Z,1006.51
2023-02-18T01:51:08.990Z,1005.83
2023-02-18T01:52:08.978Z,1005.33
2023-02-18T01:53:08.980Z,1005.1
2023-02-18T01:54:08.988Z,1004.4
2023-02-18T01:55:08.990Z,1003.79
2023-02-18T01:56:09.344Z,1003.49
2023-02-18T01:57:08.992Z,1002.92
2023-02-18T01:58:09.031Z,1002.32
2023-02-18T01:59:08.998Z,1002.11
2023-02-18T02:00:09.015Z,1002.07
2023-02-18T02:01:09.040Z,1001.8
2023-02-18T02:02:09.035Z,1001.4
2023-02-18T02:03:09.011Z,1001.17
2023-02-18T02:04:09.004Z,1000.83
2023-02-18T02:05:09.002Z,1000.84
2023-02-18T02:06:09.205Z,1000.94
2023-02-18T02:07:09.007Z,1001.28
2023-02-18T02:08:09.010Z,1001.46
2023-02-18T02:09:09.005Z,1001.01
2023-02-18T02:10:09.011Z,1001.39
2023-02-18T02:11:09.015Z,1001.16
2023-02-18T02:12:09.007Z,1001.31
2023-02-18T02:13:09.017Z,1001.28
2023-02-18T02:14:09.017Z,1001.79
2023-02-18T02:15:09.014Z,1001.46
2023-02-18T02:16:09.458Z,1001.66
2023-02-18T02:17:09.036Z,1001.79
2023-02-18T02:18:09.025Z,1001.91
2023-02-18T02:19:09.024Z,1001.68
2023-02-18T02:20:09.022Z,1001.64
2023-02-18T02:21:09.037Z,1001.71
2023-02-18T02:22:09.026Z,1001.6
2023-02-18T02:23:09.028Z,1001.77
2023-02-18T02:24:09.034Z,1001.43
2023-02-18T02:25:09.040Z,1001.32
2023-02-18T02:26:09.301Z,1001.1
2023-02-18T02:27:09.037Z,1001.25
2023-02-18T02:28:09.033Z,1001.21
2023-02-18T02:29:09.059Z,1000.84
2023-02-18T02:30:09.064Z,1000.28
2023-02-18T02:31:09.119Z,1000.21
2023-02-18T02:32:09.073Z,999.93
2023-02-18T02:33:09.042Z,999.92
2023-02-18T02:34:09.045Z,999.51
2023-02-18T02:35:09.051Z,999.09
2023-02-18T02:36:09.317Z,999
2023-02-18T02:37:09.122Z,998.96
2023-02-18T02:38:09.054Z,998.51
2023-02-18T02:39:09.063Z,998.5
2023-02-18T02:40:09.059Z,998.68
2023-02-18T02:41:09.060Z,998.5
2023-02-18T02:42:09.068Z,998.69
2023-02-18T02:43:09.065Z,998.8
2023-02-18T02:44:09.070Z,998.59
2023-02-18T02:45:09.072Z,999.09
2023-02-18T02:46:09.599Z,998.98
2023-02-18T02:47:09.068Z,998.58
2023-02-18T02:48:12.182Z,998.62
2023-02-18T02:49:09.079Z,998.75
2023-02-18T02:50:09.080Z,998.82
2023-02-18T02:51:09.086Z,998.88
2023-02-18T02:52:09.090Z,998.64
2023-02-18T02:53:09.078Z,998.61
2023-02-18T02:54:09.081Z,998.42
2023-02-18T02:55:09.084Z,999.02
2023-02-18T02:56:09.388Z,998.73
2023-02-18T02:57:09.095Z,998.76
2023-02-18T02:58:09.104Z,998.63
2023-02-18T02:59:11.871Z,999.37
2023-02-18T03:00:09.099Z,999.3
2023-02-18T03:01:09.347Z,999.56
2023-02-18T03:02:09.107Z,999.91
2023-02-18T03:03:09.200Z,1000.46
2023-02-18T03:04:09.124Z,1000.52
2023-02-18T03:05:09.107Z,1000.62
2023-02-18T03:06:09.411Z,1000.95
2023-02-18T03:07:09.114Z,1001.64
2023-02-18T03:08:09.112Z,1001.85
2023-02-18T03:09:09.117Z,1002.38
2023-02-18T03:10:12.127Z,1002.58
2023-02-18T03:11:09.143Z,1002.69
2023-02-18T03:12:09.137Z,1002.97
2023-02-18T03:13:09.114Z,1003.36
2023-02-18T03:14:09.115Z,1003.78
2023-02-18T03:15:09.135Z,1004.32
2023-02-18T03:16:09.502Z,1004.45
2023-02-18T03:17:09.130Z,1004.47
2023-02-18T03:18:09.124Z,1005.25
2023-02-18T03:19:09.136Z,1005.43
2023-02-18T03:20:09.195Z,1005.56
2023-02-18T03:21:12.994Z,1006.11
2023-02-18T03:22:09.136Z,1006.38
2023-02-18T03:23:09.130Z,1006.53
2023-02-18T03:24:09.142Z,1006.85
2023-02-18T03:25:09.137Z,1006.87
2023-02-18T03:26:09.579Z,1007.31
2023-02-18T03:27:09.139Z,1007.52
2023-02-18T03:28:09.149Z,1007.76
2023-02-18T03:29:09.151Z,1007.73
2023-02-18T03:30:09.207Z,1008.1
2023-02-18T03:31:09.206Z,1008.07
2023-02-18T03:32:12.315Z,1007.94
2023-02-18T03:33:09.155Z,1008.54
2023-02-18T03:34:09.158Z,1008.79
2023-02-18T03:35:09.166Z,1008.61
2023-02-18T03:36:09.527Z,1008.71
2023-02-18T03:37:09.189Z,1009.04
2023-02-18T03:38:09.167Z,1009.4
2023-02-18T03:39:09.163Z,1009.81
2023-02-18T03:40:09.166Z,1010.12
2023-02-18T03:41:09.180Z,1010.42
2023-02-18T03:42:09.170Z,1010.16
2023-02-18T03:43:09.196Z,1010.76
2023-02-18T03:44:09.178Z,1010.92
2023-02-18T03:45:09.172Z,1011.08
2023-02-18T03:46:09.567Z,1011.26
2023-02-18T03:47:09.179Z,1011.39
2023-02-18T03:48:09.175Z,1011.37
2023-02-18T03:49:09.181Z,1011.04
2023-02-18T03:50:09.181Z,1010.96
2023-02-18T03:51:09.185Z,1010.91
2023-02-18T03:52:09.207Z,1011.14
2023-02-18T03:53:09.186Z,1011.48
2023-02-18T03:54:09.183Z,1011.16
2023-02-18T03:55:09.186Z,1011.71
2023-02-18T03:56:09.441Z,1011.55
2023-02-18T03:57:09.192Z,1011.54
2023-02-18T03:58:09.195Z,1011.48
2023-02-18T03:59:09.193Z,1011.74
2023-02-18T04:00:09.191Z,1011.58
2023-02-18T04:01:09.262Z,1011.72
2023-02-18T04:02:09.197Z,1011.75
2023-02-18T04:03:09.197Z,1011.25
2023-02-18T04:04:09.277Z,1011.29
2023-02-18T04:05:09.210Z,1011.56
2023-02-18T04:06:09.628Z,1011.15
2023-02-18T04:07:09.197Z,1011.44
2023-02-18T04:08:09.233Z,1011.49
2023-02-18T04:09:09.473Z,1011.43
2023-02-18T04:10:09.218Z,1011.52
2023-02-18T04:11:09.212Z,1010.98
2023-02-18T04:12:09.205Z,1010.81
2023-02-18T04:13:09.220Z,1010.25
2023-02-18T04:14:09.216Z,1009.89
2023-02-18T04:15:09.219Z,1009.75
2023-02-18T04:16:09.592Z,1009.6
2023-02-18T04:17:09.222Z,1009.15
2023-02-18T04:18:09.224Z,1009.28
2023-02-18T04:19:09.238Z,1009.22
2023-02-18T04:20:09.232Z,1008.76
2023-02-18T04:21:09.239Z,1008.42
2023-02-18T04:22:09.257Z,1008.39
2023-02-18T04:23:09.241Z,1007.91
2023-02-18T04:24:09.255Z,1007.05
2023-02-18T04:25:09.233Z,1007.42
2023-02-18T04:26:09.567Z,1006.71
2023-02-18T04:27:09.260Z,1006.98
2023-02-18T04:28:09.233Z,1006.72
2023-02-18T04:29:09.261Z,1006.88
2023-02-18T04:30:09.275Z,1006.48
2023-02-18T04:31:09.396Z,1006.29
2023-02-18T04:32:09.268Z,1006.34
2023-02-18T04:33:09.254Z,1006.62
2023-02-18T04:34:09.249Z,1006.4
2023-02-18T04:35:09.249Z,1006.48
2023-02-18T04:36:09.632Z,1006.77
2023-02-18T04:37:09.275Z,1007.07
2023-02-18T04:38:09.257Z,1007.16
2023-02-18T04:39:09.251Z,1006.85
2023-02-18T04:40:09.284Z,1007.07
2023-02-18T04:41:09.291Z,1006.87
2023-02-18T04:42:09.277Z,1007.03
2023-02-18T04:43:09.264Z,1006.9
2023-02-18T04:44:09.265Z,1007.1
2023-02-18T04:45:09.270Z,1007.26
2023-02-18T04:46:09.621Z,1007.26
2023-02-18T04:47:09.294Z,1007.3
2023-02-18T04:48:09.265Z,1008.08
2023-02-18T04:49:09.272Z,1007.86
2023-02-18T04:50:09.272Z,1008.33
2023-02-18T04:51:09.281Z,1008.47
2023-02-18T04:52:09.295Z,1008.48
2023-02-18T04:53:09.280Z,1008.54
2023-02-18T04:54:09.300Z,1008.18
2023-02-18T04:55:09.288Z,1008.56
2023-02-18T04:56:09.641Z,1008.69
2023-02-18T04:57:09.308Z,1008.64
2023-02-18T04:58:09.288Z,1008.42
2023-02-18T04:59:09.328Z,1008.63
2023-02-18T05:00:09.309Z,1008.51
2023-02-18T05:01:09.335Z,1008.46
2023-02-18T05:02:09.327Z,1008.39
2023-02-18T05:03:09.301Z,1008.07
2023-02-18T05:04:09.342Z,1008.06
2023-02-18T05:05:09.297Z,1007.8
2023-02-18T05:06:09.650Z,1007.84
2023-02-18T05:07:09.324Z,1007.61
2023-02-18T05:08:09.322Z,1007.89
2023-02-18T05:09:09.314Z,1007.74
2023-02-18T05:10:09.312Z,1007.47
2023-02-18T05:11:09.316Z,1006.98
2023-02-18T05:12:09.360Z,1006.18
2023-02-18T05:13:09.311Z,1005.87
2023-02-18T05:14:09.326Z,1005.16
2023-02-18T05:15:12.337Z,1004.94
2023-02-18T05:16:09.687Z,1004.32
2023-02-18T05:17:09.358Z,1004.14
2023-02-18T05:18:09.333Z,1003.8
2023-02-18T05:19:09.389Z,1002.95
2023-02-18T05:20:10.017Z,1002.47
2023-02-18T05:21:09.328Z,1002.03
2023-02-18T05:22:09.360Z,1000.93
2023-02-18T05:23:09.329Z,1000.43
2023-02-18T05:24:09.343Z,999.81
2023-02-18T05:25:09.346Z,999.37
2023-02-18T05:26:12.459Z,999.26
2023-02-18T05:27:09.385Z,998.37
2023-02-18T05:28:09.371Z,998.08
2023-02-18T05:29:09.343Z,997.7
2023-02-18T05:30:09.409Z,997.45
2023-02-18T05:31:09.557Z,997.32
2023-02-18T05:32:09.388Z,996.97
2023-02-18T05:33:09.363Z,996.78
2023-02-18T05:34:09.356Z,996.77
2023-02-18T05:35:09.354Z,996.47
2023-02-18T05:36:09.595Z,996.32
2023-02-18T05:37:11.023Z,995.96
2023-02-18T05:38:09.353Z,995.42
2023-02-18T05:39:12.334Z,994.83
2023-02-18T05:40:09.371Z,995.08
2023-02-18T05:41:09.370Z,994.55
2023-02-18T05:42:09.372Z,994.22
2023-02-18T05:43:09.372Z,994.1
2023-02-18T05:44:09.395Z,993.75
2023-02-18T05:45:09.367Z,993.66
2023-02-18T05:46:09.740Z,993.79
2023-02-18T05:47:11.396Z,993.47
2023-02-18T05:48:12.411Z,993.83
2023-02-18T05:49:09.371Z,993.45
2023-02-18T05:50:09.376Z,993.54
2023-02-18T05:51:09.383Z,993.13
2023-02-18T05:52:09.380Z,992.87
2023-02-18T05:53:09.378Z,992.7
2023-02-18T05:54:09.405Z,992.3
2023-02-18T05:55:09.381Z,992.2
2023-02-18T05:56:09.671Z,992.32
2023-02-18T05:57:09.383Z,991.95
2023-02-18T05:58:09.407Z,992.24
2023-02-18T05:59:12.427Z,991.9
2023-02-18T06:00:09.415Z,991.98
2023-02-18T06:01:09.391Z,991.92
2023-02-18T06:02:09.390Z,992.15
2023-02-18T06:03:09.393Z,992.39
2023-02-18T06:04:09.400Z,992.22
2023-02-18T06:05:09.408Z,992.44
2023-02-18T06:06:09.689Z,992.23
2023-02-18T06:07:09.412Z,992.54
2023-02-18T06:08:09.409Z,992.4
2023-02-18T06:09:09.415Z,992.48
2023-02-18T06:10:09.412Z,992.22
2023-02-18T06:11:09.416Z,992.34
2023-02-18T06:12:09.410Z,992.41
2023-02-18T06:13:09.418Z,992.32
2023-02-18T06:14:09.423Z,992.39
2023-02-18T06:15:09.440Z,992.7
2023-02-18T06:16:09.753Z,993.27
2023-02-18T06:17:09.420Z,993.07
2023-02-18T06:18:09.424Z,992.91
2023-02-18T06:19:09.425Z,992.93
2023-02-18T06:20:09.438Z,993.83
2023-02-18T06:21:09.438Z,993.72
2023-02-18T06:22:09.431Z,993.89
2023-02-18T06:23:11.575Z,994.12
2023-02-18T06:24:09.430Z,994.4
2023-02-18T06:25:09.432Z,994.1
2023-02-18T06:26:09.744Z,994.49
2023-02-18T06:27:09.435Z,994.24
2023-02-18T06:28:09.441Z,994.77
2023-02-18T06:29:09.441Z,994.71
2023-02-18T06:30:09.464Z,994.78
2023-02-18T06:31:09.578Z,994.87
2023-02-18T06:32:09.586Z,994.99
2023-02-18T06:33:09.444Z,994.95
2023-02-18T06:34:09.442Z,995.44
2023-02-18T06:35:09.445Z,995.43
2023-02-18T06:36:09.912Z,995.63
2023-02-18T06:37:09.450Z,995.8
2023-02-18T06:38:09.449Z,996.14
2023-02-18T06:39:10.471Z,996.19
2023-02-18T06:40:09.464Z,996.33
2023-02-18T06:41:09.466Z,996.78
2023-02-18T06:42:09.464Z,997.29
2023-02-18T06:43:10.473Z,997.26
2023-02-18T06:44:09.453Z,998.5
2023-02-18T06:45:09.458Z,998.35
2023-02-18T06:46:09.903Z,998.72
2023-02-18T06:47:09.487Z,999.25
2023-02-18T06:48:09.466Z,999.35
2023-02-18T06:49:09.462Z,999.68
2023-02-18T06:50:09.478Z,999.72
2023-02-18T06:51:09.473Z,999.9
2023-02-18T06:52:09.478Z,1000.06
2023-02-18T06:53:09.505Z,1000.59
2023-02-18T06:54:09.477Z,1000.74
2023-02-18T06:55:09.471Z,1000.87
2023-02-18T06:56:09.842Z,1000.84
2023-02-18T06:57:09.480Z,1001.38
2023-02-18T06:58:09.503Z,1001.69
2023-02-18T06:59:09.479Z,1002.71
2023-02-18T07:00:09.487Z,1002.8
2023-02-18T07:01:09.519Z,1002.98
2023-02-18T07:02:09.490Z,1003.01
2023-02-18T07:03:09.556Z,1003.11
2023-02-18T07:04:09.514Z,1003.38
2023-02-18T07:05:09.516Z,1003.54
2023-02-18T07:06:09.893Z,1003.49
2023-02-18T07:07:09.500Z,1003.7
2023-02-18T07:08:09.526Z,1003.37
2023-02-18T07:09:09.502Z,1003.5
2023-02-18T07:10:09.502Z,1003.43
2023-02-18T07:11:09.522Z,1003.58
2023-02-18T07:12:09.501Z,1003.66
2023-02-18T07:13:09.529Z,1003.59
2023-02-18T07:14:09.510Z,1003.4
2023-02-18T07:15:09.503Z,1003.32
2023-02-18T07:16:09.810Z,1003.38
2023-02-18T07:17:09.535Z,1003.74
2023-02-18T07:18:09.541Z,1003.55
2023-02-18T07:19:09.548Z,1003.44
2023-02-18T07:20:09.533Z,1003.96
2023-02-18T07:21:09.533Z,1004.25
2023-02-18T07:22:09.529Z,1004.11
2023-02-18T07:23:09.545Z,1004.02
2023-02-18T07:24:09.519Z,1004.03
2023-02-18T07:25:09.519Z,1004.45
2023-02-18T07:26:10.009Z,1004.6
2023-02-18T07:27:09.532Z,1004.54
2023-02-18T07:28:09.548Z,1004.75
2023-02-18T07:29:09.537Z,1004.73
2023-02-18T07:30:09.665Z,1005.3
2023-02-18T07:31:09.654Z,1005.39
2023-02-18T07:32:09.562Z,1005.08
2023-02-18T07:33:09.556Z,1005.33
2023-02-18T07:34:09.537Z,1005.61
2023-02-18T07:35:09.568Z,1005.73
2023-02-18T07:36:09.922Z,1006.25
2023-02-18T07:37:09.540Z,1006.23
2023-02-18T07:38:09.578Z,1006.3
2023-02-18T07:39:09.550Z,1006.44
2023-02-18T07:40:09.550Z,1006.59
2023-02-18T07:41:09.558Z,1006.69
2023-02-18T07:42:12.384Z,1006.94
2023-02-18T07:43:09.574Z,1006.98
2023-02-18T07:44:09.553Z,1007.24
2023-02-18T07:45:09.562Z,1007.19
2023-02-18T07:46:09.928Z,1007.84
2023-02-18T07:47:09.566Z,1007.94
2023-02-18T07:48:09.583Z,1007.92
2023-02-18T07:49:09.559Z,1008.04
2023-02-18T07:50:09.574Z,1008.31
2023-02-18T07:51:09.604Z,1008.96
2023-02-18T07:52:09.566Z,1009.39
2023-02-18T07:53:11.102Z,1009.61
2023-02-18T07:54:09.578Z,1010.7
2023-02-18T07:55:12.617Z,1011.2
2023-02-18T07:56:09.866Z,1011.92
2023-02-18T07:57:09.580Z,1012.56
2023-02-18T07:58:09.576Z,1013.32
2023-02-18T07:59:09.724Z,1014.35
2023-02-18T08:00:09.577Z,1015.22
2023-02-18T08:01:09.595Z,1015.24
2023-02-18T08:02:09.618Z,1015.96
2023-02-18T08:03:09.592Z,1016
2023-02-18T08:04:12.440Z,1016.69
2023-02-18T08:05:09.588Z,1016.89
2023-02-18T08:06:10.086Z,1017.49
2023-02-18T08:07:09.622Z,1017.91
2023-02-18T08:08:09.598Z,1018.51
2023-02-18T08:09:09.612Z,1018.97
2023-02-18T08:10:09.603Z,1019.36
2023-02-18T08:11:18.765Z,1020.17
2023-02-18T08:12:09.602Z,1020.32
2023-02-18T08:13:09.608Z,1021.25
2023-02-18T08:14:09.609Z,1022.08
2023-02-18T08:15:12.456Z,1022.45
2023-02-18T08:16:09.932Z,1023.83
2023-02-18T08:17:09.622Z,1024.95
2023-02-18T08:18:09.614Z,1025.87
2023-02-18T08:19:09.627Z,1029.89
2023-02-18T08:20:09.624Z,1033.21
2023-02-18T08:21:09.628Z,1036.04
2023-02-18T08:22:09.634Z,1042.36
2023-02-18T08:23:09.645Z,1048.4
2023-02-18T08:24:09.626Z,1053.56
2023-02-18T08:25:15.727Z,1058.29
2023-02-18T08:26:09.935Z,1062.58
2023-02-18T08:27:09.636Z,1066.24
2023-02-18T08:28:09.638Z,1070.05
2023-02-18T08:29:09.640Z,1073.49
2023-02-18T08:30:09.751Z,1077.08
2023-02-18T08:31:09.679Z,1079.93
2023-02-18T08:32:09.772Z,1081.94
2023-02-18T08:33:09.650Z,1084.59
2023-02-18T08:34:09.650Z,1087.17
2023-02-18T08:35:09.654Z,1089.39
2023-02-18T08:36:09.891Z,1090.96
2023-02-18T08:37:09.653Z,1091.76
2023-02-18T08:38:09.664Z,1091.64
2023-02-18T08:39:09.678Z,1092.41
2023-02-18T08:40:09.665Z,1092.78
2023-02-18T08:41:09.961Z,1093.12
2023-02-18T08:42:09.656Z,1093.57
2023-02-18T08:43:09.667Z,1093.08
2023-02-18T08:44:09.684Z,1093.12
2023-02-18T08:45:09.668Z,1092.03
2023-02-18T08:46:09.700Z,1090.97
2023-02-18T08:48:13.202Z,1090.32
2023-02-18T08:48:27.898Z,1090.7
2023-02-18T08:49:27.885Z,1090.4
2023-02-18T08:50:27.880Z,1088.93
2023-02-18T08:51:27.892Z,1087.35
2023-02-18T08:52:27.893Z,1085.98
2023-02-18T08:53:27.936Z,1084.62
2023-02-18T08:54:30.737Z,1083.78
2023-02-18T08:55:27.901Z,1082.36
2023-02-18T08:56:27.892Z,1081.37
2023-02-18T08:57:27.891Z,1080.47
2023-02-18T08:58:27.926Z,1080.06
2023-02-18T08:59:27.897Z,1079.59
2023-02-18T09:00:27.899Z,1079.46
2023-02-18T09:01:27.950Z,1079.27
2023-02-18T09:02:27.907Z,1078.44
2023-02-18T09:03:27.945Z,1077.82
2023-02-18T09:04:27.950Z,1077.58
2023-02-18T09:05:31.101Z,1077.4
2023-02-18T09:06:27.922Z,1076.86
2023-02-18T09:07:27.929Z,1076.46
2023-02-18T09:08:27.936Z,1076.03
2023-02-18T09:09:27.914Z,1075.28
2023-02-18T09:10:27.947Z,1074.87
2023-02-18T09:11:27.925Z,1074.75
2023-02-18T09:12:27.922Z,1074.36
2023-02-18T09:13:27.943Z,1073.68
2023-02-18T09:14:27.922Z,1073.24
2023-02-18T09:15:27.943Z,1072.56
2023-02-18T09:16:31.156Z,1072.04
2023-02-18T09:17:27.930Z,1071.87
2023-02-18T09:18:27.967Z,1071.89
2023-02-18T09:19:27.932Z,1071.99
2023-02-18T09:20:27.942Z,1072.15
2023-02-18T09:21:27.940Z,1072.06
2023-02-18T09:22:27.943Z,1071.79
2023-02-18T09:23:27.964Z,1071.59
2023-02-18T09:24:27.939Z,1071.27
2023-02-18T09:25:27.946Z,1070.86
2023-02-18T09:26:28.010Z,1070.04
2023-02-18T09:27:30.961Z,1069.52
2023-02-18T09:28:27.967Z,1068.91
2023-02-18T09:29:27.950Z,1068.04
2023-02-18T09:30:27.982Z,1067.71
2023-02-18T09:31:28.085Z,1067
2023-02-18T09:32:34.603Z,1066.72
2023-02-18T09:33:27.986Z,1066.39
2023-02-18T09:34:27.954Z,1066.05
2023-02-18T09:35:27.953Z,1065.44
2023-02-18T09:36:27.957Z,1065.15
2023-02-18T09:37:27.961Z,1064.75
2023-02-18T09:38:27.984Z,1064.88
2023-02-18T09:39:27.969Z,1064.47
2023-02-18T09:40:27.969Z,1064.38
2023-02-18T09:41:27.968Z,1064.06
2023-02-18T09:42:28.024Z,1063.94
2023-02-18T09:43:27.990Z,1063.59
2023-02-18T09:44:27.972Z,1063.02
2023-02-18T09:45:27.976Z,1062.97
2023-02-18T09:46:28.011Z,1062.61
2023-02-18T09:47:27.977Z,1062.68
2023-02-18T09:48:27.996Z,1062.59
2023-02-18T09:49:27.974Z,1062.45
2023-02-18T09:50:28.059Z,1062.8
2023-02-18T09:51:27.987Z,1062.67
2023-02-18T09:52:27.989Z,1063.07
2023-02-18T09:53:28.039Z,1063.11
2023-02-18T09:54:27.989Z,1063.33
2023-02-18T09:55:27.991Z,1064.18
2023-02-18T09:56:27.999Z,1065.14
2023-02-18T09:57:27.992Z,1065.79
2023-02-18T09:58:28.064Z,1066.43
2023-02-18T09:59:27.996Z,1066.3
2023-02-18T10:00:28.033Z,1066.09
2023-02-18T10:01:28.001Z,1065.86
2023-02-18T10:02:28.002Z,1065.48
2023-02-18T10:03:28.044Z,1065.06
2023-02-18T10:04:28.004Z,1065.29
2023-02-18T10:05:28.026Z,1065.86
2023-02-18T10:06:28.005Z,1066.2
2023-02-18T10:07:28.553Z,1066.39
2023-02-18T10:08:28.050Z,1066.39
2023-02-18T10:09:28.092Z,1066.49
2023-02-18T10:10:28.023Z,1066.64
2023-02-18T10:11:28.019Z,1066.51
2023-02-18T10:12:28.018Z,1066.82
2023-02-18T10:13:28.058Z,1067.14
2023-02-18T10:14:28.065Z,1067.36
2023-02-18T10:15:28.034Z,1067.57
2023-02-18T10:16:28.197Z,1067.55
2023-02-18T10:17:28.054Z,1068.09
2023-02-18T10:19:28.078Z,1068.83
2023-02-18T10:20:28.127Z,1068.59
2023-02-18T10:21:28.041Z,1068.52
2023-02-18T10:22:28.041Z,1067.91
2023-02-18T10:23:28.068Z,1067.89
2023-02-18T10:24:28.036Z,1068.29
2023-02-18T10:25:28.041Z,1068.47
2023-02-18T10:26:28.059Z,1068.78
2023-02-18T10:27:28.089Z,1069.05
2023-02-18T10:28:28.083Z,1069.2
2023-02-18T10:29:28.052Z,1069.57
2023-02-18T10:30:28.317Z,1070.22
2023-02-18T10:31:28.190Z,1070.77
2023-02-18T10:32:28.133Z,1071.38
2023-02-18T10:33:28.124Z,1071.99
2023-02-18T10:34:28.119Z,1072.8
2023-02-18T10:35:28.074Z,1073.74
2023-02-18T10:36:28.062Z,1074.51
2023-02-18T10:37:28.118Z,1075.98
2023-02-18T10:38:29.241Z,1076.83
2023-02-18T10:39:28.193Z,1077.28
2023-02-18T10:40:28.075Z,1078.18
2023-02-18T10:41:28.076Z,1078.87
2023-02-18T10:42:28.069Z,1079.66
2023-02-18T10:43:28.207Z,1080.06
2023-02-18T10:44:28.199Z,1080.68
2023-02-18T10:45:28.098Z,1081.12
2023-02-18T10:46:28.181Z,1081.71
2023-02-18T10:47:28.101Z,1082.61
2023-02-18T10:48:28.148Z,1082.91
2023-02-18T10:49:31.148Z,1083.25
2023-02-18T10:50:28.097Z,1083.56
2023-02-18T10:51:28.085Z,1083.62
2023-02-18T10:52:28.106Z,1083.75
2023-02-18T10:53:28.108Z,1083.97
2023-02-18T10:54:28.168Z,1084.61
2023-02-18T10:55:28.091Z,1084.48
2023-02-18T10:56:28.355Z,1084.49
2023-02-18T10:57:28.143Z,1084.26
2023-02-18T10:58:28.112Z,1083.8
2023-02-18T10:59:28.209Z,1083.7
2023-02-18T11:00:28.167Z,1083.48
2023-02-18T11:01:28.233Z,1083.19
2023-02-18T11:02:28.163Z,1082.68
2023-02-18T11:03:28.168Z,1082.34
2023-02-18T11:04:28.202Z,1082.1
2023-02-18T11:05:28.197Z,1081.62
2023-02-18T11:06:28.116Z,1081.5
2023-02-18T11:07:28.163Z,1081.31
2023-02-18T11:08:28.171Z,1081.01
2023-02-18T11:09:28.129Z,1080.21
2023-02-18T11:10:28.129Z,1079.97
2023-02-18T11:11:28.145Z,1079.71
2023-02-18T11:12:28.150Z,1079.2
2023-02-18T11:13:28.168Z,1078.68
2023-02-18T11:14:28.143Z,1078.24
2023-02-18T11:15:28.169Z,1078.05
2023-02-18T11:16:28.278Z,1077.57
2023-02-18T11:17:28.206Z,1077.01
2023-02-18T11:18:28.170Z,1076.66
2023-02-18T11:19:28.170Z,1076.27
2023-02-18T11:20:28.156Z,1075.92
2023-02-18T11:21:31.175Z,1075.42
2023-02-18T11:22:28.145Z,1075.25
2023-02-18T11:23:28.163Z,1074.59
2023-02-18T11:24:29.174Z,1074.09
2023-02-18T11:25:28.180Z,1073.84
2023-02-18T11:26:28.176Z,1073.82
2023-02-18T11:27:28.182Z,1073.55
2023-02-18T11:28:28.191Z,1073.13
2023-02-18T11:29:28.157Z,1072.83
2023-02-18T11:30:28.220Z,1072.42
2023-02-18T11:31:28.393Z,1072.35
2023-02-18T11:32:31.188Z,1072.34
2023-02-18T11:33:28.170Z,1071.99
2023-02-18T11:34:28.234Z,1072.01
2023-02-18T11:35:28.193Z,1071.86
2023-02-18T11:36:28.187Z,1071.61
2023-02-18T11:37:28.200Z,1071.39
2023-02-18T11:38:28.410Z,1071.64
2023-02-18T11:39:28.238Z,1071.47
2023-02-18T11:40:28.162Z,1071.69
2023-02-18T11:41:28.193Z,1072.08
2023-02-18T11:42:28.221Z,1072.58
2023-02-18T11:43:31.012Z,1073.29
2023-02-18T11:44:28.248Z,1073.9
2023-02-18T11:45:28.184Z,1074.35
2023-02-18T11:46:28.245Z,1075.18
2023-02-18T11:47:28.186Z,1075.91
2023-02-18T11:48:29.013Z,1076.27
2023-02-18T11:49:28.207Z,1076.74
2023-02-18T11:50:28.209Z,1077.15
2023-02-18T11:51:28.194Z,1077.24
2023-02-18T11:52:28.189Z,1077.72
2023-02-18T11:53:28.206Z,1078.16
2023-02-18T11:54:31.276Z,1078.27
2023-02-18T11:55:28.219Z,1078.17
2023-02-18T11:56:28.234Z,1078.32
2023-02-18T11:57:28.236Z,1078.3
2023-02-18T11:58:28.224Z,1078.53
2023-02-18T11:59:28.242Z,1078.64
2023-02-18T12:00:28.239Z,1078.45
2023-02-18T12:01:28.218Z,1078.44
2023-02-18T12:02:28.226Z,1078.46
2023-02-18T12:03:28.245Z,1078.41
2023-02-18T12:04:28.426Z,1078.71
2023-02-18T12:05:31.061Z,1079.35
2023-02-18T12:06:28.217Z,1078.81
2023-02-18T12:07:28.234Z,1078.94
2023-02-18T12:08:28.401Z,1078.43
2023-02-18T12:09:28.279Z,1078.16
2023-02-18T12:10:28.270Z,1078.02
2023-02-18T12:11:28.232Z,1077.67
2023-02-18T12:12:28.237Z,1077.4